Airfield :
LOGIN :

Register | Disclaimer

   EN    FR    IT 

 










Legend :    VFR   Marginal VFR   IFR   Intensive IFR   Very Intensive IFR
Visi :
Ceiling :
>= 8 km
>= 3000ft
5 to 8 km
1000 to 3000 ft
1500m to 5 km
500 to 1000 ft
800 to 1500m
200 to 500 ft
< 800m
< 200 ft
Symbols :   Thunderstorms  Fog  Heavy snow  Heavy precipitations  Wind > 20 kt
SIGMETs :     Misc.  Thunderstorms  Icing  Turbulence  Mountain Waves  Volcanic Ashes






- Airport Elevation : 62 ft
- IATA code : TAN


GMTT - Tanger Ibn Batouta

CURRENT METAR :
  • 130500Z 18008KT 160V220 7000 FEW001 SCT008 OVC016 12/11 Q1026 NOSIG

EXPIRED METARs :
  • 130430Z 18008KT 150V210 8000 SCT010 BKN015 12/10 Q1026 NOSIG
  • 130400Z 19006KT 140V240 8000 FEW004 BKN023 13/10 Q1026 NOSIG
  • 130330Z 19006KT 8000 FEW016 OVC043 14/10 Q1026 NOSIG
  • 130300Z 23008KT 8000 FEW016 OVC043 16/13 Q1026 NOSIG

TAF TAF GMTT
Valid from the 13 at 06:00 until the 14 at 12:00 UTC


130500Z 1306/1412 19009KT 6000 SCT010 BKN015
TEMPO 1306/1316 2500 RA



MET'MAP, your aeronautical weather chart ! - Copyright ORBIFLY December 2007 - Disclaimer

ORBIFLY MET'MAP TEAM :

Programming & Development : Alexandra Zaïnal
Concept & original design : Baudouin d'Aumeries
Assistance for programming : Marc-Olivier Méhu
Technical & hardware support : Manuel Goepfert

Contact : metmap@orbifly.com




SOURCES & CREDITS :

   NOAA